createdAt,value
2018-07-04T00:00:11.557Z,5
2018-07-04T00:00:28.359Z,5.2
2018-07-04T00:00:45.143Z,5.3
2018-07-04T00:01:01.909Z,4.9
2018-07-04T00:01:18.687Z,5
2018-07-04T00:01:35.457Z,5
2018-07-04T00:01:52.221Z,5.4
2018-07-04T00:02:08.977Z,5.4
2018-07-04T00:02:25.715Z,4.9
2018-07-04T00:02:42.447Z,4.9
2018-07-04T00:02:59.183Z,5.3
2018-07-04T00:03:15.912Z,5.2
2018-07-04T00:03:32.665Z,5.2
2018-07-04T00:03:49.446Z,5.4
2018-07-04T00:04:06.165Z,5.3
2018-07-04T00:04:22.930Z,5.1
2018-07-04T00:04:39.653Z,5
2018-07-04T00:04:56.404Z,5.2
2018-07-04T00:05:13.125Z,5.2
2018-07-04T00:05:29.869Z,5.4
2018-07-04T00:05:46.611Z,5.2
2018-07-04T00:06:03.346Z,5
2018-07-04T00:06:20.110Z,4.9
2018-07-04T00:06:36.893Z,4.9
2018-07-04T00:06:53.617Z,5
2018-07-04T00:07:10.375Z,5
2018-07-04T00:07:27.121Z,4.9
2018-07-04T00:07:43.862Z,5.2
2018-07-04T00:08:00.605Z,5.1
2018-07-04T00:08:17.356Z,5.1
2018-07-04T00:08:34.089Z,5
2018-07-04T00:08:50.846Z,4.8
2018-07-04T00:09:07.596Z,4.8
2018-07-04T00:09:24.342Z,4.8
2018-07-04T00:09:41.062Z,5
2018-07-04T00:09:57.817Z,5
2018-07-04T00:10:14.576Z,4.8
2018-07-04T00:10:31.322Z,4.8
2018-07-04T00:10:48.073Z,5
2018-07-04T00:11:04.822Z,4.9
2018-07-04T00:11:21.568Z,4.8
2018-07-04T00:11:38.324Z,4.9
2018-07-04T00:11:55.076Z,5
2018-07-04T00:12:11.837Z,5
2018-07-04T00:12:28.594Z,5
2018-07-04T00:12:45.335Z,5.2
2018-07-04T00:13:02.092Z,5.1
2018-07-04T00:13:18.820Z,4.7
2018-07-04T00:13:35.554Z,4.8
2018-07-04T00:13:52.301Z,4.7
2018-07-04T00:14:09.044Z,5
2018-07-04T00:14:25.798Z,4.5
2018-07-04T00:14:42.539Z,4.6
2018-07-04T00:14:59.272Z,4.8
2018-07-04T00:15:16.032Z,4.5
2018-07-04T00:15:32.793Z,5
2018-07-04T00:15:49.536Z,5.1
2018-07-04T00:16:06.293Z,5.1
2018-07-04T00:16:23.112Z,4.6
2018-07-04T00:16:39.901Z,4.5
2018-07-04T00:16:56.661Z,4.6
2018-07-04T00:17:13.450Z,5
2018-07-04T00:17:30.223Z,4.8
2018-07-04T00:17:47.009Z,4.6
2018-07-04T00:18:03.789Z,5.2
2018-07-04T00:18:20.583Z,5.2
2018-07-04T00:18:37.362Z,4.9
2018-07-04T00:18:54.153Z,4.8
2018-07-04T00:19:10.960Z,4.7
2018-07-04T00:19:27.769Z,4.7
2018-07-04T00:19:44.554Z,4.7
2018-07-04T00:20:01.298Z,5
2018-07-04T00:20:18.044Z,4.6
2018-07-04T00:20:34.791Z,4.4
2018-07-04T00:20:51.551Z,4.6
2018-07-04T00:21:08.316Z,4.6
2018-07-04T00:21:25.063Z,4.8
2018-07-04T00:21:41.786Z,5.3
2018-07-04T00:21:58.544Z,5.1
2018-07-04T00:22:15.265Z,4.9
2018-07-04T00:22:32.002Z,4.9
2018-07-04T00:22:48.765Z,4.7
2018-07-04T00:23:05.477Z,4.5
2018-07-04T00:23:22.221Z,4.7
2018-07-04T00:23:38.961Z,4.5
2018-07-04T00:23:55.716Z,4.4
2018-07-04T00:24:12.446Z,4.8
2018-07-04T00:24:29.200Z,4.7
2018-07-04T00:24:45.963Z,4.4
2018-07-04T00:25:02.711Z,4.3
2018-07-04T00:25:19.446Z,4.7
2018-07-04T00:25:36.215Z,4.7
2018-07-04T00:25:52.957Z,4.6
2018-07-04T00:26:09.693Z,4.5
2018-07-04T00:26:26.460Z,4.5
2018-07-04T00:26:43.233Z,4.7
2018-07-04T00:26:59.979Z,4.5
2018-07-04T00:27:16.729Z,4.1
2018-07-04T00:27:33.480Z,4.5
2018-07-04T00:27:50.213Z,4.5
2018-07-04T00:28:06.958Z,4.6
2018-07-04T00:28:23.717Z,4.7
2018-07-04T00:28:40.475Z,4.4
2018-07-04T00:28:57.233Z,4.2
2018-07-04T00:29:14.014Z,4.3
2018-07-04T00:29:30.776Z,4.5
2018-07-04T00:29:47.532Z,4.5
2018-07-04T00:30:04.278Z,4.1
2018-07-04T00:30:21.028Z,4.7
2018-07-04T00:30:37.784Z,4.8
2018-07-04T00:30:54.538Z,4.7
2018-07-04T00:31:11.294Z,4.4
2018-07-04T00:31:28.066Z,4.3
2018-07-04T00:31:44.817Z,4.5
2018-07-04T00:32:01.564Z,4.3
2018-07-04T00:32:18.300Z,4.6
2018-07-04T00:32:35.048Z,4.8
2018-07-04T00:32:51.788Z,4.9
2018-07-04T00:33:08.543Z,4.5
2018-07-04T00:33:25.301Z,4.3
2018-07-04T00:33:42.039Z,4.5
2018-07-04T00:33:58.776Z,4.6
2018-07-04T00:34:15.519Z,4.2
2018-07-04T00:34:32.271Z,4.3
2018-07-04T00:34:49.026Z,4.3
2018-07-04T00:35:05.779Z,4.4
2018-07-04T00:35:22.548Z,4.3
2018-07-04T00:35:39.317Z,4.2
2018-07-04T00:35:56.095Z,4.2
2018-07-04T00:36:12.875Z,4.5
2018-07-04T00:36:29.687Z,4.4
2018-07-04T00:36:46.481Z,3.9
2018-07-04T00:37:03.253Z,3.9
2018-07-04T00:37:20.048Z,4.2
2018-07-04T00:37:36.804Z,4.3
2018-07-04T00:37:53.592Z,4.5
2018-07-04T00:38:10.342Z,4.5
2018-07-04T00:38:27.069Z,4.4
2018-07-04T00:38:43.801Z,4.3
2018-07-04T00:39:00.545Z,4.4
2018-07-04T00:39:17.292Z,4.5
2018-07-04T00:39:34.018Z,4.5
2018-07-04T00:39:50.762Z,4
2018-07-04T00:40:07.518Z,4.1
2018-07-04T00:40:25.285Z,4.2
2018-07-04T00:40:42.078Z,4.2
2018-07-04T00:40:58.817Z,4.4
2018-07-04T00:41:15.587Z,4.3
2018-07-04T00:41:32.335Z,4.1
2018-07-04T00:41:49.527Z,4.3
2018-07-04T00:42:06.262Z,4.3
2018-07-04T00:42:22.998Z,4.1
2018-07-04T00:42:39.721Z,4.1
2018-07-04T00:42:57.450Z,4.2
2018-07-04T00:43:14.179Z,4.3
2018-07-04T00:43:30.927Z,4.3
2018-07-04T00:43:47.665Z,4.1
2018-07-04T00:44:04.398Z,4.3
2018-07-04T00:44:21.144Z,4.3
2018-07-04T00:44:37.897Z,4.2
2018-07-04T00:44:54.676Z,4.3
2018-07-04T00:45:11.451Z,4.3
2018-07-04T00:45:28.184Z,4.1
2018-07-04T00:45:44.924Z,4.2
2018-07-04T00:46:01.669Z,4.2
2018-07-04T00:46:18.444Z,4.4
2018-07-04T00:46:35.208Z,4.1
2018-07-04T00:46:52.001Z,3.9
2018-07-04T00:47:08.754Z,4
2018-07-04T00:47:25.511Z,4.1
2018-07-04T00:47:42.257Z,4
2018-07-04T00:47:59.001Z,4.1
2018-07-04T00:48:15.745Z,4.3
2018-07-04T00:48:32.489Z,4
2018-07-04T00:48:49.212Z,4.2
2018-07-04T00:49:05.958Z,3.9
2018-07-04T00:49:22.693Z,3.9
2018-07-04T00:49:39.466Z,4.1
2018-07-04T00:49:56.201Z,4
2018-07-04T00:50:12.956Z,3.8
2018-07-04T00:50:29.693Z,4
2018-07-04T00:50:46.454Z,3.9
2018-07-04T00:51:03.199Z,4
2018-07-04T00:51:19.959Z,4.1
2018-07-04T00:51:36.691Z,4
2018-07-04T00:51:53.428Z,4
2018-07-04T00:52:10.162Z,4.3
2018-07-04T00:52:26.887Z,4.2
2018-07-04T00:52:43.637Z,4
2018-07-04T00:53:00.383Z,4
2018-07-04T00:53:17.136Z,3.9
2018-07-04T00:53:33.898Z,4.1
2018-07-04T00:53:50.632Z,4.1
2018-07-04T00:54:07.384Z,4.4
2018-07-04T00:54:24.119Z,4.2
2018-07-04T00:54:41.869Z,4
2018-07-04T00:54:58.614Z,4.3
2018-07-04T00:55:15.348Z,4.3
2018-07-04T00:55:32.093Z,4.1
2018-07-04T00:55:48.818Z,4
2018-07-04T00:56:05.566Z,4.2
2018-07-04T00:56:22.366Z,4.1
2018-07-04T00:56:39.170Z,4.1
2018-07-04T00:56:55.939Z,4.3
2018-07-04T00:57:12.715Z,4.2
2018-07-04T00:57:29.497Z,4
2018-07-04T00:57:46.280Z,4.5
2018-07-04T00:58:03.072Z,4.4
2018-07-04T00:58:19.870Z,3.9
2018-07-04T00:58:36.655Z,4.3
2018-07-04T00:58:53.411Z,4.2
2018-07-04T00:59:10.197Z,4.3
2018-07-04T00:59:26.963Z,4.1
2018-07-04T00:59:43.723Z,3.9
2018-07-04T01:00:00.451Z,3.7
2018-07-04T01:00:17.206Z,3.9
2018-07-04T01:00:33.973Z,4
2018-07-04T01:00:50.723Z,4.3
2018-07-04T01:01:07.476Z,4.3
2018-07-04T01:01:24.252Z,4
2018-07-04T01:01:41.029Z,4
2018-07-04T01:01:57.777Z,4.3
2018-07-04T01:02:14.516Z,4.3
2018-07-04T01:02:31.256Z,3.9
2018-07-04T01:02:48.006Z,3.8
2018-07-04T01:03:04.726Z,4
2018-07-04T01:03:21.493Z,4
2018-07-04T01:03:38.339Z,3.9
2018-07-04T01:03:55.079Z,3.9
2018-07-04T01:04:11.857Z,3.7
2018-07-04T01:04:28.616Z,3.8
2018-07-04T01:04:45.348Z,3.8
2018-07-04T01:05:02.105Z,3.8
2018-07-04T01:05:18.840Z,4.1
2018-07-04T01:05:35.562Z,4.1
2018-07-04T01:05:52.314Z,3.9
2018-07-04T01:06:09.072Z,4
2018-07-04T01:06:25.849Z,4.2
2018-07-04T01:06:42.623Z,4
2018-07-04T01:06:59.378Z,4.1
2018-07-04T01:07:16.126Z,4
2018-07-04T01:07:32.886Z,3.8
2018-07-04T01:07:49.640Z,3.8
2018-07-04T01:08:06.382Z,4
2018-07-04T01:08:23.128Z,4
2018-07-04T01:08:39.880Z,4
2018-07-04T01:08:56.624Z,4
2018-07-04T01:09:13.366Z,4
2018-07-04T01:09:30.099Z,3.9
2018-07-04T01:09:46.869Z,3.9
2018-07-04T01:10:03.613Z,3.8
2018-07-04T01:10:20.353Z,3.8
2018-07-04T01:10:37.104Z,4
2018-07-04T01:10:53.852Z,4.4
2018-07-04T01:11:10.601Z,4.2
2018-07-04T01:11:27.327Z,3.6
2018-07-04T01:11:44.068Z,3.8
2018-07-04T01:12:00.818Z,4.2
2018-07-04T01:12:17.561Z,4.2
2018-07-04T01:12:34.304Z,3.8
2018-07-04T01:12:51.051Z,3.9
2018-07-04T01:13:07.807Z,4.1
2018-07-04T01:13:24.549Z,3.9
2018-07-04T01:13:41.263Z,3.6
2018-07-04T01:13:58.033Z,3.9
2018-07-04T01:14:14.777Z,4
2018-07-04T01:14:31.526Z,3.9
2018-07-04T01:14:48.272Z,3.8
2018-07-04T01:15:05.022Z,3.5
2018-07-04T01:15:21.806Z,3.5
2018-07-04T01:15:38.571Z,3.8
2018-07-04T01:15:55.362Z,3.6
2018-07-04T01:16:12.146Z,3.7
2018-07-04T01:16:28.937Z,3.8
2018-07-04T01:16:45.713Z,3.6
2018-07-04T01:17:02.495Z,3.7
2018-07-04T01:17:19.276Z,3.7
2018-07-04T01:17:36.047Z,3.5
2018-07-04T01:17:52.798Z,3.6
2018-07-04T01:18:09.531Z,3.9
2018-07-04T01:18:26.272Z,3.9
2018-07-04T01:18:43.016Z,3.7
2018-07-04T01:18:59.763Z,3.5
2018-07-04T01:19:16.511Z,3.6
2018-07-04T01:19:33.260Z,3.8
2018-07-04T01:19:50.009Z,4
2018-07-04T01:20:06.768Z,3.6
2018-07-04T01:20:23.516Z,3.7
2018-07-04T01:20:40.260Z,4
2018-07-04T01:20:57.002Z,3.8
2018-07-04T01:21:13.741Z,3.6
2018-07-04T01:21:30.508Z,3.8
2018-07-04T01:21:47.268Z,3.8
2018-07-04T01:22:04.014Z,3.7
2018-07-04T01:22:20.767Z,3.7
2018-07-04T01:22:37.535Z,3.5
2018-07-04T01:22:54.290Z,3.6
2018-07-04T01:23:11.039Z,3.8
2018-07-04T01:23:27.781Z,3.7
2018-07-04T01:23:44.527Z,3.9
2018-07-04T01:24:01.259Z,3.5
2018-07-04T01:24:18.012Z,3.2
2018-07-04T01:24:34.742Z,3.3
2018-07-04T01:24:51.504Z,3.5
2018-07-04T01:25:08.255Z,3.6
2018-07-04T01:25:25.009Z,3.7
2018-07-04T01:25:41.751Z,3.7
2018-07-04T01:25:59.489Z,3.8
2018-07-04T01:26:16.246Z,3.5
2018-07-04T01:26:33.000Z,3.6
2018-07-04T01:26:49.747Z,3.6
2018-07-04T01:27:06.507Z,3.5
2018-07-04T01:27:23.262Z,3.5
2018-07-04T01:27:40.020Z,3.5
2018-07-04T01:27:56.768Z,3.6
2018-07-04T01:28:13.522Z,3.5
2018-07-04T01:28:30.268Z,3.3
2018-07-04T01:28:47.024Z,3.4
2018-07-04T01:29:03.771Z,3.1
2018-07-04T01:29:20.528Z,3.2
2018-07-04T01:29:37.282Z,3.2
2018-07-04T01:29:54.037Z,3.1
2018-07-04T01:30:10.788Z,3.4
2018-07-04T01:30:27.525Z,3.5
2018-07-04T01:30:44.273Z,3.2
2018-07-04T01:31:01.013Z,3.5
2018-07-04T01:31:17.757Z,3.7
2018-07-04T01:31:34.522Z,3.7
2018-07-04T01:31:51.268Z,3.7
2018-07-04T01:32:08.020Z,3.4
2018-07-04T01:32:24.810Z,3.5
2018-07-04T01:32:41.559Z,3.6
2018-07-04T01:32:58.300Z,3.8
2018-07-04T01:33:15.050Z,3.5
2018-07-04T01:33:31.775Z,3.3
2018-07-04T01:33:48.532Z,3.5
2018-07-04T01:34:05.290Z,3.4
2018-07-04T01:34:22.083Z,3.5
2018-07-04T01:34:38.867Z,3.6
2018-07-04T01:34:55.660Z,3.5
2018-07-04T01:35:12.451Z,3.4
2018-07-04T01:35:29.244Z,3.2
2018-07-04T01:35:46.036Z,3.5
2018-07-04T01:36:02.756Z,3.8
2018-07-04T01:36:19.486Z,3.7
2018-07-04T01:36:36.240Z,3.7
2018-07-04T01:36:52.989Z,3.4
2018-07-04T01:37:09.734Z,3.5
2018-07-04T01:37:26.456Z,3.5
2018-07-04T01:37:43.233Z,3.7
2018-07-04T01:37:59.995Z,3.7
2018-07-04T01:38:16.736Z,3.3
2018-07-04T01:38:33.490Z,3.1
2018-07-04T01:38:50.253Z,3.2
2018-07-04T01:39:06.995Z,3.1
2018-07-04T01:39:23.792Z,3
2018-07-04T01:39:40.589Z,3
2018-07-04T01:39:57.421Z,3.3
2018-07-04T01:40:14.210Z,3.5
2018-07-04T01:40:32.006Z,3.6
2018-07-04T01:40:48.778Z,3.8
2018-07-04T01:41:05.553Z,3.3
2018-07-04T01:41:22.295Z,3.2
2018-07-04T01:41:39.062Z,3
2018-07-04T01:41:55.817Z,3.2
2018-07-04T01:42:12.560Z,3.3
2018-07-04T01:42:29.314Z,3.1
2018-07-04T01:42:46.047Z,3.2
2018-07-04T01:43:02.788Z,3.2
2018-07-04T01:43:19.529Z,3.3
2018-07-04T01:43:36.287Z,3.2
2018-07-04T01:43:53.042Z,3.3
2018-07-04T01:44:09.786Z,3.3
2018-07-04T01:44:26.568Z,3.2
2018-07-04T01:44:43.325Z,3.1
2018-07-04T01:45:00.183Z,3.4
2018-07-04T01:45:16.933Z,3.5
2018-07-04T01:45:33.692Z,3.2
2018-07-04T01:45:50.448Z,3.3
2018-07-04T01:46:07.195Z,3.3
2018-07-04T01:46:23.945Z,3.5
2018-07-04T01:46:40.691Z,3.5
2018-07-04T01:46:57.451Z,3.4
2018-07-04T01:47:14.206Z,3.5
2018-07-04T01:47:30.959Z,3.4
2018-07-04T01:47:48.683Z,3.5
2018-07-04T01:48:05.431Z,3.1
2018-07-04T01:48:22.173Z,2.9
2018-07-04T01:48:38.937Z,3.1
2018-07-04T01:48:55.676Z,3.3
2018-07-04T01:49:12.428Z,3.4
2018-07-04T01:49:29.163Z,3.4
2018-07-04T01:49:45.914Z,3.4
2018-07-04T01:50:02.671Z,3.1
2018-07-04T01:50:19.417Z,2.9
2018-07-04T01:50:36.168Z,3
2018-07-04T01:50:52.900Z,3.3
2018-07-04T01:51:09.657Z,3.1
2018-07-04T01:51:26.409Z,2.9
2018-07-04T01:51:43.172Z,3.2
2018-07-04T01:51:59.913Z,3.2
2018-07-04T01:52:16.674Z,3.2
2018-07-04T01:52:33.415Z,3.2
2018-07-04T01:52:50.168Z,3.2
2018-07-04T01:53:06.910Z,3.2
2018-07-04T01:53:23.708Z,3.4
2018-07-04T01:53:40.499Z,3.3
2018-07-04T01:53:57.293Z,3.3
2018-07-04T01:54:14.059Z,3.3
2018-07-04T01:54:30.794Z,3.3
2018-07-04T01:54:47.552Z,3.3
2018-07-04T01:55:04.295Z,3.3
2018-07-04T01:55:21.043Z,3.3
2018-07-04T01:55:37.793Z,3
2018-07-04T01:55:54.554Z,3
2018-07-04T01:56:11.303Z,3.2
2018-07-04T01:56:28.047Z,3.4
2018-07-04T01:56:44.799Z,3.3
2018-07-04T01:57:01.550Z,3.3
2018-07-04T01:57:18.302Z,3.1
2018-07-04T01:57:35.043Z,3.1
2018-07-04T01:57:51.781Z,3.1
2018-07-04T01:58:08.530Z,2.9
2018-07-04T01:58:25.283Z,3.1
2018-07-04T01:58:42.027Z,3.3
2018-07-04T01:58:58.775Z,3.3
2018-07-04T01:59:15.528Z,3.1
2018-07-04T01:59:32.259Z,3
2018-07-04T01:59:49.007Z,3
2018-07-04T02:00:05.760Z,3.2
2018-07-04T02:00:22.544Z,3.2
2018-07-04T02:00:39.366Z,3
2018-07-04T02:00:56.152Z,2.8
2018-07-04T02:01:12.949Z,3.1
2018-07-04T02:01:29.740Z,3.2
2018-07-04T02:01:46.567Z,3.1
2018-07-04T02:02:03.333Z,2.9
2018-07-04T02:02:20.114Z,3.2
2018-07-04T02:02:36.887Z,3.2
2018-07-04T02:02:53.687Z,3.2
2018-07-04T02:03:10.479Z,3.3
2018-07-04T02:03:27.259Z,3
2018-07-04T02:03:44.065Z,3.1
2018-07-04T02:04:00.857Z,3.3
2018-07-04T02:04:17.645Z,3.1
2018-07-04T02:04:34.433Z,3.3
2018-07-04T02:04:51.182Z,3.2
2018-07-04T02:05:07.948Z,3.2
2018-07-04T02:05:24.686Z,3
2018-07-04T02:05:41.435Z,3.1
2018-07-04T02:05:58.180Z,3.2
2018-07-04T02:06:14.939Z,3.2
2018-07-04T02:06:31.687Z,3.1
2018-07-04T02:06:48.468Z,2.9
2018-07-04T02:07:05.241Z,3.1
2018-07-04T02:07:21.990Z,3
2018-07-04T02:07:38.751Z,3
2018-07-04T02:07:55.505Z,2.9
2018-07-04T02:08:12.252Z,3
2018-07-04T02:08:29.015Z,3.2
2018-07-04T02:08:45.751Z,3.1
2018-07-04T02:09:02.509Z,2.8
2018-07-04T02:09:19.240Z,2.8
2018-07-04T02:09:35.977Z,2.9
2018-07-04T02:09:52.725Z,3.1
2018-07-04T02:10:09.478Z,3.1
2018-07-04T02:10:26.229Z,2.9
2018-07-04T02:10:42.985Z,3.1
2018-07-04T02:10:59.719Z,3.2
2018-07-04T02:11:16.490Z,3.3
2018-07-04T02:11:33.227Z,3
2018-07-04T02:11:49.990Z,3
2018-07-04T02:12:06.736Z,3
2018-07-04T02:12:23.547Z,3.1
2018-07-04T02:12:40.300Z,3.1
2018-07-04T02:12:57.031Z,3.1
2018-07-04T02:13:13.782Z,3
2018-07-04T02:13:30.527Z,3
2018-07-04T02:13:47.262Z,2.9
2018-07-04T02:14:04.007Z,2.8
2018-07-04T02:14:20.739Z,2.8
2018-07-04T02:14:37.495Z,3.1
2018-07-04T02:14:54.275Z,3
2018-07-04T02:15:11.028Z,3
2018-07-04T02:15:27.775Z,3.1
2018-07-04T02:15:44.517Z,3.1
2018-07-04T02:16:01.264Z,3.2
2018-07-04T02:16:18.011Z,3.3
2018-07-04T02:16:34.752Z,3.2
2018-07-04T02:16:51.513Z,2.9
2018-07-04T02:17:08.259Z,2.8
2018-07-04T02:17:25.019Z,2.9
2018-07-04T02:17:41.781Z,3.2
2018-07-04T02:17:58.516Z,3.2
2018-07-04T02:18:15.258Z,3
2018-07-04T02:18:32.013Z,2.8
2018-07-04T02:18:48.748Z,2.9
2018-07-04T02:19:05.513Z,3.1
2018-07-04T02:19:22.290Z,3
2018-07-04T02:19:39.089Z,2.7
2018-07-04T02:19:55.873Z,2.8
2018-07-04T02:20:12.658Z,3
2018-07-04T02:20:29.433Z,3
2018-07-04T02:20:46.209Z,2.8
2018-07-04T02:21:03.007Z,2.8
2018-07-04T02:21:19.789Z,2.8
2018-07-04T02:21:36.559Z,3
2018-07-04T02:21:53.376Z,3
2018-07-04T02:22:10.160Z,2.8
2018-07-04T02:22:26.945Z,2.9
2018-07-04T02:22:43.725Z,3
2018-07-04T02:23:00.474Z,2.8
2018-07-04T02:23:17.243Z,2.8
2018-07-04T02:23:33.992Z,2.6
2018-07-04T02:23:50.760Z,2.8
2018-07-04T02:24:07.514Z,2.9
2018-07-04T02:24:24.296Z,2.7
2018-07-04T02:24:41.041Z,2.7
2018-07-04T02:24:57.804Z,2.7
2018-07-04T02:25:14.548Z,2.8
2018-07-04T02:25:31.298Z,2.7
2018-07-04T02:25:48.056Z,2.8
2018-07-04T02:26:04.806Z,3
2018-07-04T02:26:21.534Z,2.9
2018-07-04T02:26:38.280Z,2.9
2018-07-04T02:26:55.066Z,3
2018-07-04T02:27:11.817Z,3
2018-07-04T02:27:28.560Z,2.9
2018-07-04T02:27:45.297Z,2.7
2018-07-04T02:28:02.049Z,2.6
2018-07-04T02:28:18.792Z,2.7
2018-07-04T02:28:35.526Z,2.7
2018-07-04T02:28:52.261Z,2.8
2018-07-04T02:29:09.012Z,2.9
2018-07-04T02:29:25.753Z,2.9
2018-07-04T02:29:42.590Z,3.1
2018-07-04T02:29:59.374Z,2.9
2018-07-04T02:30:16.134Z,2.9
2018-07-04T02:30:32.881Z,2.9
2018-07-04T02:30:49.620Z,2.9
2018-07-04T02:31:06.368Z,2.9
2018-07-04T02:31:23.108Z,3
2018-07-04T02:31:39.870Z,2.8
2018-07-04T02:31:56.625Z,3
2018-07-04T02:32:13.372Z,2.9
2018-07-04T02:32:30.120Z,2.8
2018-07-04T02:32:46.903Z,2.7
2018-07-04T02:33:03.680Z,2.7
2018-07-04T02:33:20.428Z,2.6
2018-07-04T02:33:37.223Z,2.7
2018-07-04T02:33:53.917Z,2.8
2018-07-04T02:34:10.654Z,2.8
2018-07-04T02:34:27.400Z,2.6
2018-07-04T02:34:44.148Z,2.7
2018-07-04T02:35:00.897Z,2.7
2018-07-04T02:35:17.667Z,2.9
2018-07-04T02:35:34.419Z,2.6
2018-07-04T02:35:51.166Z,2.6
2018-07-04T02:36:07.915Z,2.8
2018-07-04T02:36:24.676Z,2.7
2018-07-04T02:36:41.430Z,2.9
2018-07-04T02:36:58.176Z,3
2018-07-04T02:37:14.928Z,3
2018-07-04T02:37:31.675Z,3
2018-07-04T02:37:48.401Z,2.8
2018-07-04T02:38:05.165Z,2.7
2018-07-04T02:38:21.921Z,2.4
2018-07-04T02:38:38.703Z,2.6
2018-07-04T02:38:55.493Z,2.7
2018-07-04T02:39:12.281Z,2.7
2018-07-04T02:39:29.069Z,2.6
2018-07-04T02:39:46.852Z,2.8
2018-07-04T02:40:03.631Z,2.9
2018-07-04T02:40:20.409Z,2.6
2018-07-04T02:40:37.198Z,2.7
2018-07-04T02:40:53.982Z,2.7
2018-07-04T02:41:10.717Z,2.5
2018-07-04T02:41:27.468Z,2.5
2018-07-04T02:41:44.208Z,2.6
2018-07-04T02:42:00.979Z,2.6
2018-07-04T02:42:17.707Z,2.5
2018-07-04T02:42:34.464Z,2.8
2018-07-04T02:42:51.217Z,2.6
2018-07-04T02:43:07.986Z,2.6
2018-07-04T02:43:24.717Z,2.6
2018-07-04T02:43:41.469Z,2.6
2018-07-04T02:43:58.215Z,2.4
2018-07-04T02:44:14.958Z,2.5
2018-07-04T02:44:31.713Z,2.7
2018-07-04T02:44:48.480Z,2.8
2018-07-04T02:45:05.400Z,2.7
2018-07-04T02:45:21.978Z,2.4
2018-07-04T02:45:38.712Z,2.4
2018-07-04T02:45:55.462Z,2.4
2018-07-04T02:46:12.223Z,2.5
2018-07-04T02:46:28.974Z,2.6
2018-07-04T02:46:45.738Z,2.7
2018-07-04T02:47:02.498Z,2.7
2018-07-04T02:47:19.272Z,2.7
2018-07-04T02:47:36.024Z,2.4
2018-07-04T02:47:52.771Z,2.5
2018-07-04T02:48:09.489Z,2.8
2018-07-04T02:48:26.244Z,2.6
2018-07-04T02:48:42.983Z,2.6
2018-07-04T02:48:59.742Z,2.5
2018-07-04T02:49:16.498Z,2.5
2018-07-04T02:49:33.248Z,2.6
2018-07-04T02:49:49.977Z,2.6
2018-07-04T02:50:06.704Z,2.6
2018-07-04T02:50:23.453Z,2.6
2018-07-04T02:50:40.195Z,2.7
2018-07-04T02:50:56.943Z,2.6
2018-07-04T02:51:13.692Z,2.4
2018-07-04T02:51:30.436Z,2.5
2018-07-04T02:51:47.170Z,2.4
2018-07-04T02:52:03.930Z,2.6
2018-07-04T02:52:20.704Z,2.7
2018-07-04T02:52:37.456Z,2.6
2018-07-04T02:52:54.207Z,2.5
2018-07-04T02:53:10.955Z,2.5
2018-07-04T02:53:27.711Z,2.5
2018-07-04T02:53:44.454Z,2.8
2018-07-04T02:54:01.210Z,2.6
2018-07-04T02:54:17.958Z,2.6
2018-07-04T02:54:34.698Z,2.9
2018-07-04T02:54:51.444Z,2.6
2018-07-04T02:55:08.173Z,2.4
2018-07-04T02:55:24.912Z,2.5
2018-07-04T02:55:41.652Z,2.5
2018-07-04T02:55:58.390Z,2.5
2018-07-04T02:56:15.148Z,2.7
2018-07-04T02:56:31.916Z,2.8
2018-07-04T02:56:48.655Z,2.6
2018-07-04T02:57:05.425Z,2.3
2018-07-04T02:57:22.211Z,2.5
2018-07-04T02:57:38.998Z,2.8
2018-07-04T02:57:55.764Z,2.3
2018-07-04T02:58:12.563Z,2.2
2018-07-04T02:58:29.352Z,2.3
2018-07-04T02:58:46.121Z,2.4
2018-07-04T02:59:02.893Z,2.6
2018-07-04T02:59:19.647Z,2.7
2018-07-04T02:59:36.394Z,2.5
2018-07-04T02:59:53.147Z,2.5
2018-07-04T03:00:09.873Z,2.5
2018-07-04T03:00:26.616Z,2.6
2018-07-04T03:00:43.367Z,2.4
2018-07-04T03:01:00.135Z,2.4
2018-07-04T03:01:16.866Z,2.3
2018-07-04T03:01:33.617Z,2.6
2018-07-04T03:01:50.355Z,2.8
2018-07-04T03:02:07.136Z,2.7
2018-07-04T03:02:23.928Z,2.5
2018-07-04T03:02:40.731Z,2.8
2018-07-04T03:02:57.494Z,2.9
2018-07-04T03:03:14.282Z,2.6
2018-07-04T03:03:31.074Z,2.4
2018-07-04T03:03:47.918Z,2.4
2018-07-04T03:04:04.677Z,2.2
2018-07-04T03:04:21.450Z,2.5
2018-07-04T03:04:38.221Z,2.5
2018-07-04T03:04:54.998Z,2.5
2018-07-04T03:05:11.794Z,2.3
2018-07-04T03:05:28.580Z,2.5
2018-07-04T03:05:45.361Z,2.6
2018-07-04T03:06:02.128Z,2.8
2018-07-04T03:06:18.911Z,2.6
2018-07-04T03:06:35.706Z,2.3
2018-07-04T03:06:52.437Z,2.5
2018-07-04T03:07:09.188Z,2.7
2018-07-04T03:07:25.910Z,2.4
2018-07-04T03:07:42.656Z,2.3
2018-07-04T03:08:00.390Z,2.5
2018-07-04T03:08:17.141Z,2.5
2018-07-04T03:08:33.903Z,2.5
2018-07-04T03:08:50.664Z,2.6
2018-07-04T03:09:07.418Z,2.7
2018-07-04T03:09:24.162Z,2.7
2018-07-04T03:09:40.923Z,2.4
2018-07-04T03:09:57.670Z,2.2
2018-07-04T03:10:14.419Z,2.4
2018-07-04T03:10:31.193Z,2.6
2018-07-04T03:10:47.920Z,2.7
2018-07-04T03:11:04.659Z,2.5
2018-07-04T03:11:21.416Z,2.4
2018-07-04T03:11:38.151Z,2.3
2018-07-04T03:11:54.901Z,2.3
2018-07-04T03:12:11.660Z,2.5
2018-07-04T03:12:28.404Z,2.5
2018-07-04T03:12:45.170Z,2.2
2018-07-04T03:13:01.905Z,2.2
2018-07-04T03:13:18.646Z,2.3
2018-07-04T03:13:35.401Z,2.2
2018-07-04T03:13:52.121Z,2.4
2018-07-04T03:14:08.856Z,2.4
2018-07-04T03:14:25.600Z,2.4
2018-07-04T03:14:42.350Z,2.4
2018-07-04T03:14:59.099Z,2.4
2018-07-04T03:15:15.849Z,2.6
2018-07-04T03:15:32.596Z,2.6
2018-07-04T03:15:49.352Z,2.4
2018-07-04T03:16:06.112Z,2.5
2018-07-04T03:16:22.906Z,2.4
2018-07-04T03:16:39.689Z,2.3
2018-07-04T03:16:56.484Z,2.6
2018-07-04T03:17:13.275Z,2.6
2018-07-04T03:17:30.068Z,2.5
2018-07-04T03:17:46.812Z,2.6
2018-07-04T03:18:03.550Z,2.3
2018-07-04T03:18:20.298Z,2.2
2018-07-04T03:18:37.046Z,2.4
2018-07-04T03:18:53.796Z,2.5
2018-07-04T03:19:10.559Z,2.3
2018-07-04T03:19:27.298Z,2.3
2018-07-04T03:19:44.034Z,2.2
2018-07-04T03:20:00.763Z,2.6
2018-07-04T03:20:17.531Z,2.4
2018-07-04T03:20:34.294Z,2.3
2018-07-04T03:20:51.043Z,2.5
2018-07-04T03:21:07.795Z,2.5
2018-07-04T03:21:24.546Z,2.4
2018-07-04T03:21:41.305Z,2.2
2018-07-04T03:21:58.048Z,2.4
2018-07-04T03:22:14.809Z,2.5
2018-07-04T03:22:31.550Z,2.5
2018-07-04T03:22:48.313Z,2.5
2018-07-04T03:23:05.062Z,2.4
2018-07-04T03:23:21.813Z,2.4
2018-07-04T03:23:38.560Z,2.6
2018-07-04T03:23:55.311Z,2.6
2018-07-04T03:24:12.065Z,2.3
2018-07-04T03:24:28.817Z,2.4
2018-07-04T03:24:45.568Z,2.7
2018-07-04T03:25:02.305Z,2.5
2018-07-04T03:25:19.074Z,2.2
2018-07-04T03:25:35.821Z,2.3
2018-07-04T03:25:52.596Z,2.4
2018-07-04T03:26:09.329Z,2.2
2018-07-04T03:26:26.073Z,2.3
2018-07-04T03:26:42.831Z,2.3
2018-07-04T03:26:59.578Z,2.2
2018-07-04T03:27:16.327Z,2.3
2018-07-04T03:27:33.074Z,2.4
2018-07-04T03:27:49.852Z,2.5
2018-07-04T03:28:06.598Z,2.4
2018-07-04T03:28:23.349Z,2.5
2018-07-04T03:28:40.084Z,2.6
2018-07-04T03:28:56.819Z,2.4
2018-07-04T03:29:13.568Z,2.4
2018-07-04T03:29:30.312Z,2.1
2018-07-04T03:29:47.070Z,2.1
2018-07-04T03:30:03.803Z,2.3
2018-07-04T03:30:20.554Z,2.5
2018-07-04T03:30:37.303Z,2.3
2018-07-04T03:30:54.040Z,2.3
2018-07-04T03:31:10.770Z,2.3
2018-07-04T03:31:27.532Z,2.2
2018-07-04T03:31:44.310Z,2.4
2018-07-04T03:32:01.025Z,2.6
2018-07-04T03:32:17.784Z,2.4
2018-07-04T03:32:34.531Z,2.2
2018-07-04T03:32:51.256Z,2.3
2018-07-04T03:33:08.115Z,2.3
2018-07-04T03:33:24.760Z,2.1
2018-07-04T03:33:41.516Z,2.1
2018-07-04T03:33:58.260Z,2.2
2018-07-04T03:34:14.998Z,2.5
2018-07-04T03:34:31.749Z,2.5
2018-07-04T03:34:48.505Z,2.5
2018-07-04T03:35:05.240Z,2.5
2018-07-04T03:35:22.064Z,2.2
2018-07-04T03:35:38.856Z,2.2
2018-07-04T03:35:55.621Z,2
2018-07-04T03:36:12.375Z,2.1
2018-07-04T03:36:29.120Z,2.3
2018-07-04T03:36:45.864Z,2.6
2018-07-04T03:37:02.612Z,2.3
2018-07-04T03:37:19.377Z,2.2
2018-07-04T03:37:36.127Z,2.3
2018-07-04T03:37:52.875Z,2.4
2018-07-04T03:38:09.615Z,2.3
2018-07-04T03:38:26.409Z,2.2
2018-07-04T03:38:43.145Z,2
2018-07-04T03:38:59.870Z,2.2
2018-07-04T03:39:16.649Z,2.3
2018-07-04T03:39:33.818Z,2.3
2018-07-04T03:39:50.572Z,2.4
2018-07-04T03:40:07.319Z,2.1
2018-07-04T03:40:24.084Z,2.1
2018-07-04T03:40:40.847Z,2.4
2018-07-04T03:40:57.603Z,2.2
2018-07-04T03:41:14.334Z,2.1
2018-07-04T03:41:31.070Z,2.2
2018-07-04T03:41:47.827Z,2.2
2018-07-04T03:42:04.576Z,2.3
2018-07-04T03:42:21.373Z,2.3
2018-07-04T03:42:38.060Z,2.2
2018-07-04T03:42:54.814Z,2.1
2018-07-04T03:43:11.536Z,2.2
2018-07-04T03:43:28.277Z,2.1
2018-07-04T03:43:45.036Z,2.1
2018-07-04T03:44:01.812Z,2.2
2018-07-04T03:44:18.564Z,2.1
2018-07-04T03:44:35.311Z,2.3
2018-07-04T03:44:52.064Z,2.4
2018-07-04T03:45:08.845Z,2.2
2018-07-04T03:45:25.605Z,2
2018-07-04T03:45:43.342Z,2.2
2018-07-04T03:46:00.098Z,2.2
2018-07-04T03:46:16.836Z,2.3
2018-07-04T03:46:33.597Z,2.4
2018-07-04T03:46:50.337Z,2.3
2018-07-04T03:47:07.092Z,2.3
2018-07-04T03:47:23.859Z,2.2
2018-07-04T03:47:40.610Z,2.2
2018-07-04T03:47:57.376Z,2.3
2018-07-04T03:48:14.141Z,2.2
2018-07-04T03:48:30.887Z,2.2
2018-07-04T03:48:47.668Z,2.2
2018-07-04T03:49:04.421Z,2.1
2018-07-04T03:49:21.169Z,2.2
2018-07-04T03:49:37.911Z,2.2
2018-07-04T03:49:54.695Z,2.1
2018-07-04T03:50:11.428Z,2.1
2018-07-04T03:50:28.174Z,2.1
2018-07-04T03:50:44.967Z,2.1
2018-07-04T03:51:01.702Z,2.2
2018-07-04T03:51:18.449Z,2.2
2018-07-04T03:51:35.225Z,2.3
2018-07-04T03:51:51.975Z,2.3
2018-07-04T03:52:08.728Z,2.3
2018-07-04T03:52:25.464Z,2.3
2018-07-04T03:52:42.191Z,2.3